Time;durP1;ratioP1;P1;durP2;ratioP2;P2;SDS_P1;SDS_P2;PMS_P1;PMS_P2;Temp;Humidity;BMP_temperature;BMP_pressure;BME280_temperature;BME280_humidity;BME280_pressure;Samples;Min_cycle;Max_cycle;Signal;HPM_P1;HPM_P2
2023/01/15 00:01:33;;;;;;;0.30;0.30;;;8.60;99.90;;;;;;5014619;28;20182;-68
2023/01/15 00:04:02;;;;;;;0.30;0.30;;;8.60;99.90;;;;;;5012926;28;20199;-69
2023/01/15 00:06:28;;;;;;;0.30;0.30;;;8.60;99.90;;;;;;5012165;28;20172;-69
2023/01/15 00:08:54;;;;;;;0.73;0.70;;;8.70;99.90;;;;;;5011836;28;20207;-67
2023/01/15 00:11:20;;;;;;;0.30;0.30;;;8.80;99.90;;;;;;5013786;28;20171;-69
2023/01/15 00:13:47;;;;;;;0.30;0.30;;;8.90;99.90;;;;;;5013844;28;20809;-69
2023/01/15 00:16:15;;;;;;;0.30;0.30;;;8.90;99.90;;;;;;5013409;28;20191;-69
2023/01/15 00:18:42;;;;;;;0.38;0.38;;;8.90;99.90;;;;;;5013639;28;20172;-68
2023/01/15 00:21:10;;;;;;;0.30;0.30;;;8.90;99.90;;;;;;5013870;28;20214;-68
2023/01/15 00:29:09;;;;;;;0.30;0.30;;;9.00;99.90;;;;;;5013561;28;20234;-68
2023/01/15 00:31:35;;;;;;;0.65;0.65;;;9.00;99.90;;;;;;5013676;28;20214;-68
2023/01/15 00:34:01;;;;;;;0.30;0.30;;;9.10;99.90;;;;;;5013587;28;20207;-68
2023/01/15 00:36:27;;;;;;;0.30;0.30;;;9.00;99.90;;;;;;5013886;28;20175;-69
2023/01/15 00:38:53;;;;;;;0.30;0.30;;;9.00;99.90;;;;;;5014576;28;20636;-69
2023/01/15 00:41:19;;;;;;;0.50;0.50;;;8.90;99.90;;;;;;5017291;28;20199;-68
2023/01/15 00:43:44;;;;;;;0.30;0.30;;;8.90;99.90;;;;;;5017159;28;20537;-70
2023/01/15 00:46:10;;;;;;;0.30;0.30;;;9.10;99.90;;;;;;5016725;28;20406;-67
2023/01/15 00:48:36;;;;;;;0.40;0.40;;;9.20;99.90;;;;;;5017263;28;20195;-69
2023/01/15 00:51:03;;;;;;;0.30;0.30;;;9.20;99.90;;;;;;5017397;28;20168;-70
2023/01/15 00:53:29;;;;;;;0.40;0.40;;;9.20;99.90;;;;;;5017355;28;20496;-69
2023/01/15 00:55:55;;;;;;;0.30;0.30;;;9.20;99.90;;;;;;5016451;28;20637;-67
2023/01/15 00:58:21;;;;;;;0.30;0.30;;;9.10;99.90;;;;;;5016867;28;20238;-69
2023/01/15 01:00:56;;;;;;;0.30;0.30;;;9.00;99.90;;;;;;5016685;28;20726;-68
2023/01/15 01:03:23;;;;;;;0.30;0.30;;;9.10;99.90;;;;;;5017001;28;20221;-69
2023/01/15 01:05:48;;;;;;;0.35;0.35;;;9.00;99.90;;;;;;5016347;28;20620;-69
2023/01/15 01:08:15;;;;;;;0.30;0.30;;;9.10;99.90;;;;;;5016420;28;20223;-67
2023/01/15 01:10:41;;;;;;;0.40;0.40;;;9.10;99.90;;;;;;5016644;28;20176;-69
2023/01/15 01:13:06;;;;;;;0.30;0.30;;;9.20;99.90;;;;;;5016804;28;20701;-68
2023/01/15 01:15:33;;;;;;;0.30;0.30;;;9.10;99.90;;;;;;5016601;28;20429;-69
2023/01/15 01:17:59;;;;;;;0.30;0.30;;;9.10;99.90;;;;;;5016842;28;20183;-69
2023/01/15 01:20:25;;;;;;;0.30;0.30;;;9.10;99.90;;;;;;5016903;28;20270;-66
2023/01/15 01:22:51;;;;;;;0.30;0.30;;;9.10;99.90;;;;;;5016267;28;20896;-68
2023/01/15 01:25:17;;;;;;;0.30;0.30;;;9.10;99.90;;;;;;5015927;28;20203;-69
2023/01/15 01:27:44;;;;;;;0.30;0.30;;;9.00;99.90;;;;;;5016239;28;20403;-70
2023/01/15 01:30:10;;;;;;;0.30;0.30;;;9.00;99.90;;;;;;5016170;28;20168;-68
2023/01/15 01:32:36;;;;;;;0.30;0.30;;;9.00;99.90;;;;;;5016583;28;20168;-67
2023/01/15 01:35:01;;;;;;;0.40;0.40;;;9.00;99.90;;;;;;5015911;28;20550;-69
2023/01/15 01:37:27;;;;;;;0.43;0.43;;;9.00;99.90;;;;;;5015900;28;20164;-68
2023/01/15 01:39:54;;;;;;;0.30;0.30;;;9.00;99.90;;;;;;5014775;28;20671;-67
2023/01/15 01:42:20;;;;;;;0.30;0.30;;;9.10;99.90;;;;;;5016107;28;20195;-68
2023/01/15 01:44:45;;;;;;;0.30;0.30;;;9.10;99.90;;;;;;5015613;28;20555;-68
2023/01/15 01:47:24;;;;;;;0.30;0.30;;;9.20;99.90;;;;;;5016292;28;20170;-69
2023/01/15 01:49:57;;;;;;;0.30;0.30;;;9.10;99.90;;;;;;5015802;28;20234;-69
2023/01/15 01:52:28;;;;;;;0.30;0.30;;;9.10;99.90;;;;;;5016029;28;20538;-68
2023/01/15 01:54:55;;;;;;;0.30;0.30;;;9.10;99.90;;;;;;5015621;28;20187;-69
2023/01/15 01:57:22;;;;;;;0.40;0.40;;;9.00;99.90;;;;;;5015524;28;20187;-68
2023/01/15 01:59:48;;;;;;;0.30;0.30;;;9.00;99.90;;;;;;5016039;28;20667;-68
2023/01/15 02:02:17;;;;;;;0.30;0.30;;;9.00;99.90;;;;;;5016084;28;20536;-69
2023/01/15 02:04:43;;;;;;;0.30;0.30;;;9.10;99.90;;;;;;5015245;28;20290;-70
2023/01/15 02:07:08;;;;;;;0.30;0.30;;;9.00;99.90;;;;;;5015547;28;20179;-68
2023/01/15 02:09:34;;;;;;;0.40;0.40;;;9.00;99.90;;;;;;5015665;28;20203;-70
2023/01/15 02:12:35;;;;;;;0.30;0.30;;;9.10;99.90;;;;;;5015720;28;20250;-69
2023/01/15 02:15:15;;;;;;;0.30;0.30;;;9.20;99.90;;;;;;5015074;28;20191;-68
2023/01/15 02:17:41;;;;;;;0.30;0.30;;;9.20;99.90;;;;;;5015660;28;20175;-69
2023/01/15 02:20:43;;;;;;;0.30;0.30;;;9.20;99.90;;;;;;5015377;28;20536;-69
2023/01/15 02:23:43;;;;;;;0.30;0.30;;;9.20;99.90;;;;;;5013759;28;20237;-70
2023/01/15 02:26:27;;;;;;;0.30;0.30;;;9.20;99.90;;;;;;5015213;28;20175;-68
2023/01/15 02:28:56;;;;;;;0.30;0.30;;;9.30;99.90;;;;;;5015558;28;20199;-69
2023/01/15 02:31:35;;;;;;;0.30;0.30;;;9.30;99.90;;;;;;5015560;28;20178;-69
2023/01/15 02:34:15;;;;;;;0.30;0.30;;;9.30;99.90;;;;;;5014863;28;20183;-70
2023/01/15 02:36:45;;;;;;;0.30;0.30;;;9.30;99.90;;;;;;5015227;28;20174;-68
2023/01/15 02:39:14;;;;;;;0.30;0.30;;;9.30;99.90;;;;;;5015230;28;20175;-68
2023/01/15 02:41:44;;;;;;;0.30;0.30;;;9.40;99.90;;;;;;5015165;28;20172;-69
2023/01/15 02:44:14;;;;;;;0.30;0.30;;;9.40;99.90;;;;;;5014816;28;20240;-69
2023/01/15 02:46:42;;;;;;;0.40;0.40;;;9.30;99.90;;;;;;5015109;28;20549;-69
2023/01/15 02:49:11;;;;;;;0.30;0.30;;;9.30;99.90;;;;;;5014869;28;20207;-69
2023/01/15 02:52:14;;;;;;;0.30;0.30;;;9.20;99.90;;;;;;5015056;28;20168;-69
2023/01/15 02:54:45;;;;;;;0.30;0.30;;;9.10;99.90;;;;;;5010787;28;20570;-70
2023/01/15 02:57:12;;;;;;;0.30;0.30;;;9.10;99.90;;;;;;5014351;28;20183;-69
2023/01/15 02:59:42;;;;;;;0.52;0.52;;;9.00;99.90;;;;;;5014769;28;20617;-67
2023/01/15 03:02:16;;;;;;;0.60;0.60;;;9.00;99.90;;;;;;5014134;28;20553;-69
2023/01/15 03:04:57;;;;;;;0.30;0.30;;;9.10;99.90;;;;;;5014407;28;20199;-69
2023/01/15 03:07:30;;;;;;;0.30;0.30;;;9.10;99.90;;;;;;5014554;28;20512;-67
2023/01/15 03:09:57;;;;;;;0.30;0.30;;;9.20;99.90;;;;;;5014620;28;20187;-69
2023/01/15 03:13:02;;;;;;;0.40;0.40;;;9.20;99.90;;;;;;5014414;28;20175;-70
2023/01/15 03:18:41;;;;;;;0.52;0.52;;;9.20;99.90;;;;;;5014721;28;20274;-69
2023/01/15 03:21:10;;;;;;;0.30;0.30;;;9.10;99.90;;;;;;5014779;28;20577;-70
2023/01/15 03:23:41;;;;;;;0.40;0.40;;;9.00;99.90;;;;;;5014521;28;20739;-68
2023/01/15 03:26:07;;;;;;;0.30;0.30;;;8.90;99.90;;;;;;5014042;28;20179;-68
2023/01/15 03:28:36;;;;;;;0.30;0.30;;;8.90;99.90;;;;;;5014350;28;20648;-69
2023/01/15 03:31:02;;;;;;;0.30;0.30;;;8.90;99.90;;;;;;5013118;28;20168;-67
2023/01/15 03:33:29;;;;;;;0.30;0.30;;;8.90;99.90;;;;;;5014447;28;20178;-69
2023/01/15 03:35:57;;;;;;;0.30;0.30;;;8.90;99.90;;;;;;5013696;28;20797;-69
2023/01/15 03:38:36;;;;;;;0.30;0.30;;;8.90;99.90;;;;;;5013926;28;20258;-68
2023/01/15 03:41:23;;;;;;;0.30;0.30;;;9.00;99.90;;;;;;5014087;28;20171;-69
2023/01/15 03:44:15;;;;;;;0.30;0.30;;;9.00;99.90;;;;;;5014364;28;20179;-67
2023/01/15 03:47:05;;;;;;;0.40;0.40;;;9.00;99.90;;;;;;5013869;28;20175;-67
2023/01/15 03:49:55;;;;;;;0.40;0.40;;;9.00;99.90;;;;;;5014015;28;20661;-70
2023/01/15 03:52:34;;;;;;;0.30;0.30;;;9.00;99.90;;;;;;5014378;28;20167;-70
2023/01/15 03:55:06;;;;;;;0.30;0.30;;;9.20;99.90;;;;;;5013573;28;20194;-68
2023/01/15 03:57:57;;;;;;;0.73;0.40;;;9.20;99.90;;;;;;5013677;28;20641;-68
2023/01/15 04:00:32;;;;;;;0.30;0.30;;;9.10;99.90;;;;;;5014008;28;20175;-70
2023/01/15 04:03:02;;;;;;;1.38;0.82;;;9.00;99.90;;;;;;5014228;28;20167;-69
2023/01/15 04:05:30;;;;;;;0.30;0.30;;;9.00;99.90;;;;;;5013932;28;20526;-69
2023/01/15 04:07:57;;;;;;;0.40;0.40;;;9.00;99.90;;;;;;5013665;28;20195;-68
2023/01/15 04:10:23;;;;;;;0.55;0.55;;;9.00;99.90;;;;;;5014010;28;20190;-69
2023/01/15 04:12:49;;;;;;;0.30;0.30;;;9.10;99.90;;;;;;5014555;28;20172;-68
2023/01/15 04:15:15;;;;;;;0.30;0.30;;;9.10;99.90;;;;;;5017224;28;20191;-69
2023/01/15 04:17:41;;;;;;;0.30;0.30;;;9.20;99.90;;;;;;5017867;28;20163;-70
2023/01/15 04:20:08;;;;;;;0.30;0.30;;;9.20;99.90;;;;;;5017501;28;20302;-69
2023/01/15 04:22:34;;;;;;;0.30;0.30;;;9.10;99.90;;;;;;5017590;28;20238;-70
2023/01/15 04:25:01;;;;;;;0.30;0.30;;;9.10;99.90;;;;;;5017181;28;20234;-69
2023/01/15 04:27:27;;;;;;;0.40;0.40;;;9.00;99.90;;;;;;5017720;28;20178;-67
2023/01/15 04:29:52;;;;;;;0.30;0.30;;;9.00;99.90;;;;;;5017734;28;20294;-69
2023/01/15 04:32:18;;;;;;;0.30;0.30;;;9.10;99.90;;;;;;5017367;28;20167;-68
2023/01/15 04:34:44;;;;;;;0.30;0.30;;;9.10;99.90;;;;;;5017056;28;20191;-67
2023/01/15 04:37:10;;;;;;;0.30;0.30;;;9.00;99.90;;;;;;5017319;28;20461;-68
2023/01/15 04:39:35;;;;;;;0.30;0.30;;;9.00;99.90;;;;;;5017487;28;20171;-69
2023/01/15 04:44:45;;;;;;;0.30;0.30;;;8.90;99.90;;;;;;5017441;28;20225;-70
2023/01/15 04:47:10;;;;;;;0.30;0.30;;;9.00;99.90;;;;;;5016968;28;20171;-70
2023/01/15 04:49:36;;;;;;;0.40;0.40;;;8.90;99.90;;;;;;5016973;28;20195;-69
2023/01/15 04:52:03;;;;;;;0.30;0.30;;;8.90;99.90;;;;;;5017167;28;20603;-69
2023/01/15 04:54:29;;;;;;;0.30;0.30;;;8.90;99.90;;;;;;5016922;28;20187;-69
2023/01/15 04:56:55;;;;;;;0.30;0.30;;;8.90;99.90;;;;;;5016604;28;20222;-68
2023/01/15 04:59:25;;;;;;;0.30;0.30;;;9.00;99.90;;;;;;5017320;28;20171;-68
2023/01/15 05:01:52;;;;;;;0.30;0.30;;;8.90;99.90;;;;;;5016799;28;20172;-67
2023/01/15 05:04:18;;;;;;;0.30;0.30;;;8.80;99.90;;;;;;5016299;28;20231;-68
2023/01/15 05:06:43;;;;;;;0.30;0.30;;;8.90;99.90;;;;;;5016935;28;20619;-67
2023/01/15 05:09:09;;;;;;;0.30;0.30;;;8.80;99.90;;;;;;5016988;28;20457;-69
2023/01/15 05:11:37;;;;;;;0.30;0.30;;;8.80;99.90;;;;;;5017042;28;20178;-67
2023/01/15 05:14:04;;;;;;;0.30;0.30;;;8.80;99.90;;;;;;5016778;28;20295;-67
2023/01/15 05:16:30;;;;;;;0.30;0.30;;;8.80;99.90;;;;;;5016617;28;20179;-70
2023/01/15 05:18:59;;;;;;;0.55;0.55;;;8.70;99.90;;;;;;5016728;28;20168;-69
2023/01/15 05:21:27;;;;;;;0.30;0.30;;;8.70;99.90;;;;;;5016676;28;20270;-70
2023/01/15 05:23:56;;;;;;;0.30;0.30;;;8.80;99.90;;;;;;5016485;28;20179;-67
2023/01/15 05:26:22;;;;;;;0.30;0.30;;;8.90;99.90;;;;;;5015918;28;20624;-69
2023/01/15 05:28:49;;;;;;;0.30;0.30;;;8.90;99.90;;;;;;5016127;28;20250;-68
2023/01/15 05:31:17;;;;;;;1.13;0.50;;;9.00;99.90;;;;;;5016246;28;20198;-68
2023/01/15 05:33:43;;;;;;;0.40;0.40;;;9.00;99.90;;;;;;5016305;28;20168;-68
2023/01/15 05:36:12;;;;;;;0.30;0.30;;;9.00;99.90;;;;;;5015839;28;20182;-69
2023/01/15 05:38:38;;;;;;;1.38;1.00;;;9.10;99.90;;;;;;5016048;28;20255;-67
2023/01/15 05:41:47;;;;;;;0.40;0.40;;;9.00;99.90;;;;;;5016536;28;20275;-69
2023/01/15 05:43:52;;;;;;;0.30;0.30;;;8.90;99.90;;;;;;5015932;28;20655;-69
2023/01/15 05:46:18;;;;;;;0.30;0.30;;;8.90;99.90;;;;;;5016022;28;20227;-68
2023/01/15 05:48:44;;;;;;;1.73;0.60;;;8.90;99.90;;;;;;5016187;28;20589;-69
2023/01/15 05:51:09;;;;;;;0.30;0.30;;;8.90;99.90;;;;;;5016400;28;20274;-70
2023/01/15 05:53:36;;;;;;;0.40;0.40;;;9.00;99.90;;;;;;5016172;28;20164;-68
2023/01/15 05:56:02;;;;;;;0.30;0.30;;;9.10;99.90;;;;;;5015359;28;20568;-69
2023/01/15 05:58:28;;;;;;;0.30;0.30;;;9.00;99.90;;;;;;5015794;28;20199;-68
2023/01/15 06:00:54;;;;;;;0.40;0.40;;;8.90;99.90;;;;;;5014629;28;20645;-69
2023/01/15 06:03:25;;;;;;;0.30;0.30;;;8.90;99.90;;;;;;5016025;28;20172;-70
2023/01/15 06:05:52;;;;;;;0.30;0.30;;;8.90;99.90;;;;;;5015260;28;20191;-69
2023/01/15 06:08:18;;;;;;;0.40;0.40;;;9.00;99.90;;;;;;5015321;28;20254;-70
2023/01/15 06:10:45;;;;;;;0.40;0.40;;;9.00;99.90;;;;;;5015718;28;20176;-68
2023/01/15 06:13:11;;;;;;;0.30;0.30;;;8.90;99.90;;;;;;5015612;28;20445;-69
2023/01/15 06:15:36;;;;;;;0.30;0.30;;;9.00;99.90;;;;;;5015448;28;20549;-69
2023/01/15 06:18:02;;;;;;;0.40;0.40;;;9.10;99.90;;;;;;5015541;28;20179;-68
2023/01/15 06:20:28;;;;;;;0.40;0.40;;;9.20;99.90;;;;;;5015845;28;20203;-69
2023/01/15 06:22:53;;;;;;;0.30;0.30;;;9.20;99.90;;;;;;5015188;28;20253;-70
2023/01/15 06:25:19;;;;;;;0.30;0.30;;;9.10;99.90;;;;;;5015058;28;20310;-67
2023/01/15 06:27:45;;;;;;;0.30;0.30;;;9.10;99.90;;;;;;5015730;28;20178;-68
2023/01/15 06:30:11;;;;;;;0.30;0.30;;;8.90;99.90;;;;;;5015571;28;20167;-69
2023/01/15 06:32:37;;;;;;;0.40;0.40;;;8.90;99.90;;;;;;5015628;28;20403;-69
2023/01/15 06:35:02;;;;;;;0.30;0.30;;;9.00;99.90;;;;;;5015240;28;20250;-70
2023/01/15 06:37:28;;;;;;;0.30;0.30;;;9.00;99.90;;;;;;5014896;28;20167;-67
2023/01/15 06:39:54;;;;;;;0.40;0.40;;;9.00;99.90;;;;;;5015011;28;20700;-68
2023/01/15 06:47:48;;;;;;;0.40;0.40;;;9.00;99.90;;;;;;5015149;28;20592;-68
2023/01/15 06:50:15;;;;;;;0.30;0.30;;;9.00;99.90;;;;;;5014813;28;20171;-68
2023/01/15 06:52:40;;;;;;;0.30;0.30;;;9.00;99.90;;;;;;5014934;28;20175;-68
2023/01/15 06:55:06;;;;;;;0.40;0.40;;;9.10;99.90;;;;;;5014504;28;20196;-68
2023/01/15 06:57:32;;;;;;;0.30;0.30;;;9.20;99.90;;;;;;5014995;28;20622;-69
2023/01/15 06:59:58;;;;;;;0.30;0.30;;;9.20;99.90;;;;;;5015128;28;20259;-69
2023/01/15 07:02:23;;;;;;;0.30;0.30;;;9.20;99.90;;;;;;5014913;28;20176;-68
2023/01/15 07:04:50;;;;;;;0.40;0.40;;;9.30;99.90;;;;;;5014473;28;20195;-67
2023/01/15 07:07:18;;;;;;;3.92;1.33;;;9.30;99.90;;;;;;5014613;28;20533;-69
2023/01/15 07:09:43;;;;;;;0.40;0.40;;;9.40;99.90;;;;;;5014627;28;20211;-67
2023/01/15 07:12:09;;;;;;;0.30;0.30;;;9.40;99.90;;;;;;5014693;28;20193;-67
2023/01/15 07:14:35;;;;;;;0.30;0.30;;;9.40;99.90;;;;;;5014293;28;20427;-70
2023/01/15 07:17:01;;;;;;;0.50;0.50;;;9.50;99.90;;;;;;5013302;28;20273;-69
2023/01/15 07:19:27;;;;;;;0.45;0.45;;;9.60;99.90;;;;;;5013240;28;20625;-71
2023/01/15 07:21:53;;;;;;;0.30;0.30;;;9.70;99.90;;;;;;5014458;28;20186;-70
2023/01/15 07:24:19;;;;;;;0.30;0.30;;;9.70;99.90;;;;;;5013428;28;20203;-70
2023/01/15 07:26:45;;;;;;;0.30;0.30;;;9.60;99.90;;;;;;5012869;28;20206;-70
2023/01/15 07:29:11;;;;;;;0.30;0.30;;;9.60;99.90;;;;;;5013956;28;20544;-70
2023/01/15 07:31:39;;;;;;;0.30;0.30;;;9.60;99.90;;;;;;5014422;28;20178;-70
2023/01/15 07:34:05;;;;;;;0.30;0.30;;;9.40;99.90;;;;;;5013854;28;20484;-70
2023/01/15 07:36:31;;;;;;;0.40;0.40;;;9.40;99.90;;;;;;5014212;28;20664;-70
2023/01/15 07:38:57;;;;;;;0.40;0.40;;;9.20;99.90;;;;;;5014164;28;20186;-70
2023/01/15 07:49:46;;;;;;;0.30;0.30;;;8.50;99.90;;;;;;5013894;28;20306;-69
2023/01/15 07:52:20;;;;;;;0.40;0.40;;;8.40;99.90;;;;;;5014434;28;20171;-70
2023/01/15 07:54:47;;;;;;;0.30;0.30;;;8.20;99.90;;;;;;5011639;28;20199;-70
2023/01/15 07:57:16;;;;;;;0.40;0.40;;;8.20;99.90;;;;;;5013879;28;20216;-70
2023/01/15 07:59:42;;;;;;;0.30;0.30;;;8.10;99.90;;;;;;5012802;28;20175;-70
2023/01/15 08:02:08;;;;;;;0.30;0.30;;;7.80;99.90;;;;;;5012953;28;20195;-70
2023/01/15 08:04:33;;;;;;;0.40;0.40;;;7.90;99.90;;;;;;5012862;28;20194;-70
2023/01/15 08:07:01;;;;;;;0.30;0.30;;;7.90;99.90;;;;;;5012737;28;20895;-70
2023/01/15 08:09:27;;;;;;;0.30;0.30;;;7.60;99.90;;;;;;5012440;28;20461;-70
2023/01/15 08:17:21;;;;;;;0.30;0.30;;;7.60;99.90;;;;;;5014483;28;20178;-70
2023/01/15 08:19:47;;;;;;;0.30;0.30;;;7.50;99.90;;;;;;5013631;28;20175;-70
2023/01/15 08:22:12;;;;;;;0.30;0.30;;;7.50;99.90;;;;;;5013769;28;20175;-70
2023/01/15 08:24:38;;;;;;;0.30;0.30;;;7.60;99.90;;;;;;5013298;28;20194;-70
2023/01/15 08:27:04;;;;;;;0.30;0.30;;;7.60;99.90;;;;;;5014126;28;20168;-70
2023/01/15 08:29:30;;;;;;;0.38;0.38;;;7.50;99.90;;;;;;5011709;28;20588;-70
2023/01/15 08:31:56;;;;;;;0.30;0.30;;;7.40;99.90;;;;;;5013510;28;20257;-70
2023/01/15 08:34:23;;;;;;;0.30;0.30;;;7.30;99.90;;;;;;5013194;28;20202;-70
2023/01/15 08:36:51;;;;;;;0.40;0.40;;;7.20;99.90;;;;;;5013590;28;20206;-68
2023/01/15 08:39:17;;;;;;;0.30;0.30;;;7.10;99.90;;;;;;5012465;28;20179;-69
2023/01/15 08:41:43;;;;;;;0.30;0.30;;;7.10;99.90;;;;;;5013715;28;20687;-69
2023/01/15 08:44:09;;;;;;;0.30;0.30;;;7.00;99.90;;;;;;5012466;28;20265;-68
2023/01/15 08:46:35;;;;;;;0.30;0.30;;;7.00;99.90;;;;;;5012425;28;20185;-70
2023/01/15 08:49:03;;;;;;;0.65;0.50;;;6.90;99.90;;;;;;5011827;28;20299;-70
2023/01/15 08:51:33;;;;;;;0.40;0.40;;;6.70;99.90;;;;;;5010708;28;20576;-70
2023/01/15 08:53:59;;;;;;;0.30;0.30;;;6.60;99.90;;;;;;5010877;28;20249;-71
2023/01/15 08:56:26;;;;;;;0.30;0.30;;;6.30;99.90;;;;;;5013065;28;20593;-71
2023/01/15 08:58:51;;;;;;;0.40;0.40;;;6.20;99.90;;;;;;5013755;28;20531;-71
2023/01/15 09:01:17;;;;;;;0.30;0.30;;;6.00;99.90;;;;;;5015903;28;20175;-71
2023/01/15 09:03:44;;;;;;;0.40;0.40;;;6.00;99.90;;;;;;5015220;28;20176;-70
2023/01/15 09:06:12;;;;;;;0.40;0.40;;;6.20;99.90;;;;;;5014958;28;20726;-70
2023/01/15 09:08:39;;;;;;;0.30;0.30;;;6.30;99.90;;;;;;5017122;28;20208;-70
2023/01/15 09:17:02;;;;;;;0.40;0.40;;;6.30;99.90;;;;;;5055992;28;20205;-70
2023/01/15 09:19:27;;;;;;;1.10;1.10;;;6.10;99.90;;;;;;5055913;28;20285;-69
2023/01/15 09:21:53;;;;;;;0.40;0.40;;;6.00;99.90;;;;;;5055762;28;20209;-69
2023/01/15 09:24:18;;;;;;;0.47;0.47;;;5.90;99.90;;;;;;5055793;28;20248;-69
2023/01/15 09:26:44;;;;;;;0.90;0.90;;;5.80;99.90;;;;;;5055785;28;20213;-70
2023/01/15 09:29:10;;;;;;;0.40;0.40;;;5.90;99.90;;;;;;5055840;28;20202;-68
2023/01/15 09:31:35;;;;;;;0.60;0.50;;;5.90;99.90;;;;;;5055798;28;20178;-70
2023/01/15 09:34:01;;;;;;;0.40;0.40;;;5.80;99.90;;;;;;5055796;28;20510;-70
2023/01/15 09:36:30;;;;;;;0.30;0.30;;;5.70;99.90;;;;;;5055974;28;20166;-68
2023/01/15 09:38:57;;;;;;;0.35;0.35;;;5.70;99.90;;;;;;5055484;28;20187;-68
2023/01/15 09:44:29;;;;;;;0.35;0.35;;;5.40;99.90;;;;;;5056313;28;20227;-68
2023/01/15 09:47:16;;;;;;;0.32;0.32;;;5.50;99.90;;;;;;5056102;28;20170;-68
2023/01/15 09:50:00;;;;;;;0.50;0.50;;;5.40;99.90;;;;;;5055748;28;20189;-68
2023/01/15 09:52:32;;;;;;;0.30;0.30;;;5.30;99.90;;;;;;5055438;28;20178;-67
2023/01/15 09:55:18;;;;;;;0.57;0.57;;;5.40;99.90;;;;;;5055931;28;20648;-68
2023/01/15 09:57:48;;;;;;;0.45;0.45;;;5.40;99.90;;;;;;5055304;28;20269;-68
2023/01/15 10:00:18;;;;;;;0.30;0.30;;;5.40;99.90;;;;;;5055501;28;20266;-70
2023/01/15 10:02:54;;;;;;;0.30;0.30;;;5.40;99.90;;;;;;5055179;28;20203;-69
2023/01/15 10:05:28;;;;;;;0.30;0.30;;;5.40;99.90;;;;;;5055472;28;20174;-69
2023/01/15 10:07:59;;;;;;;0.40;0.40;;;5.30;99.90;;;;;;5055343;28;20194;-70
2023/01/15 10:10:33;;;;;;;0.40;0.40;;;5.30;99.90;;;;;;5054838;28;20170;-68
2023/01/15 10:13:34;;;;;;;0.30;0.30;;;5.20;99.90;;;;;;5055284;28;20178;-68
2023/01/15 10:16:00;;;;;;;0.40;0.40;;;5.20;99.90;;;;;;5055196;28;20622;-69
2023/01/15 10:18:27;;;;;;;0.40;0.40;;;5.20;99.90;;;;;;5054721;28;20199;-69
2023/01/15 10:20:59;;;;;;;0.30;0.30;;;5.00;99.90;;;;;;5053606;28;20195;-69
2023/01/15 10:23:35;;;;;;;0.40;0.40;;;4.90;99.90;;;;;;5054514;28;20525;-68
2023/01/15 10:26:24;;;;;;;0.40;0.40;;;4.90;99.90;;;;;;5054959;28;20179;-68
2023/01/15 10:29:03;;;;;;;0.30;0.30;;;5.00;99.90;;;;;;5054623;28;20226;-67
2023/01/15 10:31:52;;;;;;;0.30;0.30;;;5.10;99.90;;;;;;5054652;28;20300;-67
2023/01/15 10:34:44;;;;;;;0.40;0.40;;;5.00;99.90;;;;;;5054996;28;20256;-69
2023/01/15 10:37:23;;;;;;;0.40;0.40;;;5.00;99.90;;;;;;5054519;28;20277;-67
2023/01/15 10:40:08;;;;;;;0.40;0.40;;;4.80;99.90;;;;;;5054875;28;20166;-68
2023/01/15 10:43:03;;;;;;;0.65;0.65;;;4.80;99.90;;;;;;5054382;28;20198;-67
2023/01/15 10:45:35;;;;;;;0.70;0.70;;;4.70;99.90;;;;;;5045247;28;20189;-68
2023/01/15 10:48:10;;;;;;;0.40;0.40;;;4.60;99.90;;;;;;5053197;28;20217;-69
2023/01/15 10:50:37;;;;;;;0.40;0.40;;;4.40;99.90;;;;;;5054230;28;20219;-69
2023/01/15 10:53:12;;;;;;;0.40;0.40;;;4.30;99.90;;;;;;5054240;28;20692;-68
2023/01/15 10:55:49;;;;;;;0.30;0.30;;;4.30;99.90;;;;;;5054584;28;20522;-68
2023/01/15 10:58:37;;;;;;;0.60;0.60;;;4.40;99.90;;;;;;5054203;28;20280;-69
2023/01/15 11:01:24;;;;;;;0.40;0.40;;;4.40;99.90;;;;;;5054215;28;20177;-67
2023/01/15 11:03:50;;;;;;;0.30;0.30;;;4.50;99.90;;;;;;5053733;28;20185;-69
2023/01/15 11:06:22;;;;;;;0.30;0.30;;;4.50;99.90;;;;;;5054080;28;20220;-69
2023/01/15 11:08:53;;;;;;;0.40;0.40;;;4.70;99.90;;;;;;5054084;28;20485;-69
2023/01/15 11:19:46;;;;;;;1.02;1.02;;;4.60;99.90;;;;;;5034709;28;20205;-68
2023/01/15 11:22:15;;;;;;;0.40;0.40;;;4.60;99.90;;;;;;5053313;28;20228;-69
2023/01/15 11:24:54;;;;;;;0.40;0.40;;;4.60;99.90;;;;;;5052303;28;20631;-67
2023/01/15 11:27:23;;;;;;;0.40;0.40;;;4.70;99.90;;;;;;5053846;28;20190;-69
2023/01/15 11:29:54;;;;;;;0.40;0.40;;;4.70;99.90;;;;;;5053651;28;20228;-68
2023/01/15 11:32:31;;;;;;;0.40;0.40;;;4.70;99.90;;;;;;5053765;28;20657;-69
2023/01/15 11:35:03;;;;;;;0.40;0.40;;;4.70;99.90;;;;;;5053747;28;20178;-69
2023/01/15 11:37:29;;;;;;;0.40;0.40;;;4.60;99.90;;;;;;5053976;28;20197;-69
2023/01/15 11:40:06;;;;;;;0.50;0.50;;;4.50;99.90;;;;;;5053534;28;20639;-69
2023/01/15 11:51:07;;;;;;;0.40;0.40;;;4.20;99.90;;;;;;5053511;28;20172;-69
2023/01/15 11:53:44;;;;;;;0.40;0.40;;;4.20;99.90;;;;;;5053373;28;20209;-69
2023/01/15 11:56:14;;;;;;;0.40;0.40;;;4.30;99.90;;;;;;5053571;28;20174;-69
2023/01/15 11:58:45;;;;;;;0.40;0.40;;;4.30;99.90;;;;;;5053219;28;20193;-68
2023/01/15 12:01:29;;;;;;;0.40;0.40;;;4.30;99.90;;;;;;5053603;28;20173;-67
2023/01/15 12:03:56;;;;;;;0.30;0.30;;;4.40;99.90;;;;;;5053317;28;20240;-69
2023/01/15 12:06:22;;;;;;;0.40;0.40;;;4.40;99.90;;;;;;5051952;28;20178;-69
2023/01/15 12:08:50;;;;;;;0.40;0.40;;;4.30;99.90;;;;;;5053256;28;20292;-68
2023/01/15 12:11:21;;;;;;;0.35;0.35;;;4.30;99.90;;;;;;5052990;28;20192;-69
2023/01/15 12:14:07;;;;;;;0.90;0.90;;;4.30;99.90;;;;;;5052731;28;20531;-68
2023/01/15 12:16:51;;;;;;;0.50;0.50;;;4.40;99.90;;;;;;5053305;28;20166;-69
2023/01/15 12:19:25;;;;;;;0.40;0.40;;;4.50;99.90;;;;;;5053004;28;20214;-67
2023/01/15 12:22:17;;;;;;;0.40;0.40;;;4.40;99.90;;;;;;5053468;28;20189;-68
2023/01/15 12:24:48;;;;;;;0.35;0.35;;;4.30;99.90;;;;;;5053372;28;20221;-69
2023/01/15 12:27:48;;;;;;;0.75;0.75;;;4.40;99.90;;;;;;5053213;28;20273;-68
2023/01/15 12:30:22;;;;;;;0.40;0.40;;;4.40;99.90;;;;;;5053492;28;20647;-69
2023/01/15 12:33:17;;;;;;;0.40;0.40;;;4.40;99.90;;;;;;5052998;28;20162;-69
2023/01/15 12:35:56;;;;;;;0.40;0.40;;;4.30;99.90;;;;;;5054147;28;20182;-69
2023/01/15 12:38:49;;;;;;;0.40;0.40;;;4.20;99.90;;;;;;5056987;28;20539;-69
2023/01/15 12:41:22;;;;;;;0.40;0.40;;;4.20;99.90;;;;;;5056882;28;20181;-69
2023/01/15 12:46:42;;;;;;;0.40;0.40;;;4.00;99.90;;;;;;5057231;28;20181;-68
2023/01/15 12:49:14;;;;;;;0.30;0.30;;;4.00;99.90;;;;;;5056599;28;20202;-70
2023/01/15 12:51:50;;;;;;;0.47;0.47;;;4.10;99.90;;;;;;5056610;28;20167;-68
2023/01/15 12:54:23;;;;;;;0.65;0.65;;;4.20;99.90;;;;;;5056842;28;20170;-68
2023/01/15 12:57:13;;;;;;;0.40;0.40;;;4.20;99.90;;;;;;5056669;28;20166;-68
2023/01/15 13:00:01;;;;;;;1.05;1.05;;;4.30;99.90;;;;;;5056727;28;20566;-69
2023/01/15 13:02:39;;;;;;;0.30;0.30;;;4.20;99.90;;;;;;5056354;28;20220;-69
2023/01/15 13:05:28;;;;;;;0.40;0.40;;;4.30;99.90;;;;;;5056607;28;20201;-69
2023/01/15 13:08:18;;;;;;;0.40;0.40;;;4.30;99.90;;;;;;5056246;28;20190;-69
2023/01/15 13:10:47;;;;;;;0.30;0.30;;;4.40;99.90;;;;;;5056589;28;20636;-69
2023/01/15 13:13:24;;;;;;;0.40;0.40;;;4.30;99.90;;;;;;5056140;28;20541;-68
2023/01/15 13:16:11;;;;;;;0.30;0.30;;;4.20;99.90;;;;;;5056159;28;20170;-69
2023/01/15 13:18:43;;;;;;;0.40;0.40;;;4.10;99.90;;;;;;5054821;28;20198;-69
2023/01/15 13:21:13;;;;;;;0.40;0.40;;;4.10;99.90;;;;;;5056335;28;20646;-69
2023/01/15 13:24:07;;;;;;;0.40;0.40;;;4.20;99.90;;;;;;5055818;28;20182;-68
2023/01/15 13:26:58;;;;;;;0.40;0.40;;;4.30;99.90;;;;;;5056022;28;20263;-69
2023/01/15 13:29:33;;;;;;;0.40;0.40;;;4.10;99.90;;;;;;5056119;28;20212;-69
2023/01/15 13:32:11;;;;;;;0.35;0.35;;;3.90;99.90;;;;;;5055964;28;20166;-70
2023/01/15 13:34:45;;;;;;;0.40;0.40;;;3.80;99.90;;;;;;5055873;28;20166;-69
2023/01/15 13:37:27;;;;;;;0.40;0.40;;;3.90;99.90;;;;;;5055934;28;20189;-70
2023/01/15 13:39:59;;;;;;;17.75;1.15;;;4.10;99.90;;;;;;5055837;28;20178;-69
2023/01/15 13:42:33;;;;;;;0.40;0.40;;;4.10;99.90;;;;;;5055706;28;20171;-70
2023/01/15 13:45:06;;;;;;;0.38;0.38;;;4.30;99.90;;;;;;5055817;28;20504;-68
2023/01/15 13:47:36;;;;;;;0.30;0.30;;;4.40;99.90;;;;;;5055299;28;20226;-70
2023/01/15 13:50:14;;;;;;;0.40;0.40;;;4.50;99.90;;;;;;5055455;28;20574;-68
2023/01/15 13:52:40;;;;;;;0.40;0.40;;;4.40;99.90;;;;;;5055493;28;20166;-69
2023/01/15 13:55:18;;;;;;;0.30;0.30;;;4.40;99.90;;;;;;5055658;28;20175;-68
2023/01/15 13:57:44;;;;;;;0.30;0.30;;;4.30;99.90;;;;;;5055617;28;20235;-69
2023/01/15 14:00:34;;;;;;;0.30;0.30;;;4.40;99.90;;;;;;5055421;28;20166;-68
2023/01/15 14:03:03;;;;;;;0.40;0.40;;;4.50;99.90;;;;;;5055233;28;20415;-69
2023/01/15 14:05:33;;;;;;;0.50;0.50;;;4.60;99.90;;;;;;5055068;28;20200;-68
2023/01/15 14:08:01;;;;;;;0.63;0.63;;;4.60;99.90;;;;;;5055037;28;20204;-70
2023/01/15 14:10:35;;;;;;;0.38;0.38;;;4.60;99.80;;;;;;5055204;28;20162;-69
2023/01/15 14:13:45;;;;;;;0.40;0.40;;;4.70;99.70;;;;;;5054863;28;20543;-68
2023/01/15 14:16:13;;;;;;;0.40;0.40;;;4.60;99.70;;;;;;5054004;28;20174;-68
2023/01/15 14:19:03;;;;;;;0.40;0.40;;;4.40;99.20;;;;;;5054825;28;20565;-69